Alert, Canada
Current Conditions -  °F | °C
As of 8:00 PM on Saturday 22 Nov 2014 (Local Time) from CWEU Reporting Station
Clear Clear  
Wind Chill: -26°   Ceiling: Unl
Heat Index: -26°   Visibility: 15mi
Dew Point: -31°   Wind: 2mph
Humidity: 76%   Direction: 300°WNW
Pressure: 29.78"   Gusts: NA
Location:  82.47°N, 62.5°W
Report Text: CWEU 230100Z 30002KT 15SM SKC M32/M35 A2978 RMK SLP088
Loading
Personal Weather Stations






























Interactive Weather Map New forecast layout! Learn more

10-Day Weather Forecast

Advertisements
Track Severe Weather on mobile